KCCA/CCA METAR and TAF weather

Enter ICAO airport designator
Station Type Date Time Source
KCCA METAR 2020/12/06 00:55 UTC NOAA

KCCA 060055Z AUTO 00000KT 5SM BR CLR 04/03 A3010 RMK AO2


Station Type Date Time Source
KCCA Decoded METAR 2020/12/06 00:55 UTC NOAA

Station name not available
Dec 05, 2020 - 07:55 PM EST / 2020.12.06 0055 UTC
Wind: Calm:0
Visibility: 5 mile(s):0
Sky conditions: clear
Weather: mist
Temperature: 39 F (4 C)
Dew Point: 37 F (3 C)
Relative Humidity: 93%
Pressure (altimeter): 30.1 in. Hg (1019 hPa)
ob: KCCA 060055Z AUTO 00000KT 5SM BR CLR 04/03 A3010 RMK AO2
cycle: 1

Station Type Date Time Source
KCCA TAF UTC NOAA

Error!

Example: see airport list